sensor_id;sensor_type;location;lat;lon;timestamp;P1;durP1;ratioP1;P2;durP2;ratioP2
10823;SDS011;39116;59.332;18.034;2022-07-06T00:01:01;3.42;;;0.90;;
10823;SDS011;39116;59.332;18.034;2022-07-06T00:03:28;3.78;;;1.08;;
10823;SDS011;39116;59.332;18.034;2022-07-06T00:05:54;4.22;;;1.27;;
10823;SDS011;39116;59.332;18.034;2022-07-06T00:08:20;1.08;;;0.93;;
10823;SDS011;39116;59.332;18.034;2022-07-06T00:10:47;3.25;;;1.10;;
10823;SDS011;39116;59.332;18.034;2022-07-06T00:13:15;4.72;;;1.20;;
10823;SDS011;39116;59.332;18.034;2022-07-06T00:15:41;1.98;;;1.10;;
10823;SDS011;39116;59.332;18.034;2022-07-06T00:18:07;4.07;;;1.20;;
10823;SDS011;39116;59.332;18.034;2022-07-06T00:20:34;2.00;;;0.93;;
10823;SDS011;39116;59.332;18.034;2022-07-06T00:23:00;1.48;;;1.00;;
10823;SDS011;39116;59.332;18.034;2022-07-06T00:25:27;2.42;;;1.27;;
10823;SDS011;39116;59.332;18.034;2022-07-06T00:27:53;3.00;;;1.35;;
10823;SDS011;39116;59.332;18.034;2022-07-06T00:30:21;4.57;;;1.20;;
10823;SDS011;39116;59.332;18.034;2022-07-06T00:32:47;1.85;;;1.08;;
10823;SDS011;39116;59.332;18.034;2022-07-06T00:35:14;3.60;;;1.30;;
10823;SDS011;39116;59.332;18.034;2022-07-06T00:37:40;2.78;;;1.08;;
10823;SDS011;39116;59.332;18.034;2022-07-06T00:40:07;3.60;;;1.50;;
10823;SDS011;39116;59.332;18.034;2022-07-06T00:42:38;3.83;;;1.20;;
10823;SDS011;39116;59.332;18.034;2022-07-06T00:45:05;2.28;;;1.00;;
10823;SDS011;39116;59.332;18.034;2022-07-06T00:47:33;3.85;;;1.23;;
10823;SDS011;39116;59.332;18.034;2022-07-06T00:49:59;3.80;;;1.17;;
10823;SDS011;39116;59.332;18.034;2022-07-06T00:52:43;6.50;;;1.30;;
10823;SDS011;39116;59.332;18.034;2022-07-06T00:55:10;3.53;;;1.10;;
10823;SDS011;39116;59.332;18.034;2022-07-06T00:57:37;6.63;;;1.63;;
10823;SDS011;39116;59.332;18.034;2022-07-06T01:00:04;3.83;;;1.30;;
10823;SDS011;39116;59.332;18.034;2022-07-06T01:02:31;3.15;;;1.40;;
10823;SDS011;39116;59.332;18.034;2022-07-06T01:04:59;5.80;;;1.30;;
10823;SDS011;39116;59.332;18.034;2022-07-06T01:07:25;2.83;;;1.02;;
10823;SDS011;39116;59.332;18.034;2022-07-06T01:09:52;2.42;;;1.10;;
10823;SDS011;39116;59.332;18.034;2022-07-06T01:12:19;2.67;;;0.95;;
10823;SDS011;39116;59.332;18.034;2022-07-06T01:14:45;4.53;;;1.20;;
10823;SDS011;39116;59.332;18.034;2022-07-06T01:17:12;3.42;;;1.20;;
10823;SDS011;39116;59.332;18.034;2022-07-06T01:19:39;4.38;;;1.30;;
10823;SDS011;39116;59.332;18.034;2022-07-06T01:22:07;2.35;;;1.20;;
10823;SDS011;39116;59.332;18.034;2022-07-06T01:24:34;2.33;;;1.38;;
10823;SDS011;39116;59.332;18.034;2022-07-06T01:27:01;6.72;;;1.50;;
10823;SDS011;39116;59.332;18.034;2022-07-06T01:29:27;3.60;;;1.33;;
10823;SDS011;39116;59.332;18.034;2022-07-06T01:31:53;2.78;;;1.23;;
10823;SDS011;39116;59.332;18.034;2022-07-06T01:34:20;2.63;;;1.20;;
10823;SDS011;39116;59.332;18.034;2022-07-06T01:36:53;3.05;;;1.20;;
10823;SDS011;39116;59.332;18.034;2022-07-06T01:39:21;7.35;;;1.73;;
10823;SDS011;39116;59.332;18.034;2022-07-06T01:41:48;4.20;;;1.50;;
10823;SDS011;39116;59.332;18.034;2022-07-06T01:44:14;7.95;;;1.60;;
10823;SDS011;39116;59.332;18.034;2022-07-06T01:46:40;4.30;;;1.42;;
10823;SDS011;39116;59.332;18.034;2022-07-06T01:49:07;3.65;;;1.40;;
10823;SDS011;39116;59.332;18.034;2022-07-06T01:51:33;3.65;;;1.50;;
10823;SDS011;39116;59.332;18.034;2022-07-06T01:54:00;3.80;;;1.48;;
10823;SDS011;39116;59.332;18.034;2022-07-06T01:56:27;3.78;;;1.58;;
10823;SDS011;39116;59.332;18.034;2022-07-06T01:58:54;3.85;;;1.40;;
10823;SDS011;39116;59.332;18.034;2022-07-06T02:01:20;4.25;;;1.77;;
10823;SDS011;39116;59.332;18.034;2022-07-06T02:03:47;3.45;;;1.58;;
10823;SDS011;39116;59.332;18.034;2022-07-06T02:06:13;10.18;;;1.92;;
10823;SDS011;39116;59.332;18.034;2022-07-06T02:08:40;5.85;;;1.83;;
10823;SDS011;39116;59.332;18.034;2022-07-06T02:11:07;3.95;;;1.80;;
10823;SDS011;39116;59.332;18.034;2022-07-06T02:13:35;2.33;;;1.60;;
10823;SDS011;39116;59.332;18.034;2022-07-06T02:16:02;3.83;;;1.92;;
10823;SDS011;39116;59.332;18.034;2022-07-06T02:18:28;5.00;;;1.77;;
10823;SDS011;39116;59.332;18.034;2022-07-06T02:20:55;4.88;;;2.03;;
10823;SDS011;39116;59.332;18.034;2022-07-06T02:23:21;4.30;;;1.80;;
10823;SDS011;39116;59.332;18.034;2022-07-06T02:25:48;3.20;;;1.88;;
10823;SDS011;39116;59.332;18.034;2022-07-06T02:28:14;7.10;;;1.92;;
10823;SDS011;39116;59.332;18.034;2022-07-06T02:30:42;4.25;;;2.00;;
10823;SDS011;39116;59.332;18.034;2022-07-06T02:33:08;5.38;;;2.20;;
10823;SDS011;39116;59.332;18.034;2022-07-06T02:35:34;5.72;;;2.30;;
10823;SDS011;39116;59.332;18.034;2022-07-06T02:38:02;6.47;;;2.40;;
10823;SDS011;39116;59.332;18.034;2022-07-06T02:40:29;5.22;;;2.05;;
10823;SDS011;39116;59.332;18.034;2022-07-06T02:42:55;4.65;;;2.30;;
10823;SDS011;39116;59.332;18.034;2022-07-06T02:45:21;6.63;;;2.00;;
10823;SDS011;39116;59.332;18.034;2022-07-06T02:47:49;5.30;;;2.35;;
10823;SDS011;39116;59.332;18.034;2022-07-06T02:50:16;3.88;;;2.22;;
10823;SDS011;39116;59.332;18.034;2022-07-06T02:52:43;8.85;;;2.42;;
10823;SDS011;39116;59.332;18.034;2022-07-06T02:55:09;5.07;;;2.40;;
10823;SDS011;39116;59.332;18.034;2022-07-06T02:57:36;5.72;;;2.58;;
10823;SDS011;39116;59.332;18.034;2022-07-06T03:00:02;5.00;;;2.10;;
10823;SDS011;39116;59.332;18.034;2022-07-06T03:02:29;9.07;;;2.53;;
10823;SDS011;39116;59.332;18.034;2022-07-06T03:04:57;4.97;;;2.28;;
10823;SDS011;39116;59.332;18.034;2022-07-06T03:07:24;3.72;;;2.15;;
10823;SDS011;39116;59.332;18.034;2022-07-06T03:09:50;4.35;;;1.75;;
10823;SDS011;39116;59.332;18.034;2022-07-06T03:12:17;4.10;;;2.03;;
10823;SDS011;39116;59.332;18.034;2022-07-06T03:14:43;5.10;;;2.08;;
10823;SDS011;39116;59.332;18.034;2022-07-06T03:17:10;4.10;;;1.95;;
10823;SDS011;39116;59.332;18.034;2022-07-06T03:19:36;5.28;;;1.90;;
10823;SDS011;39116;59.332;18.034;2022-07-06T03:22:04;3.63;;;2.00;;
10823;SDS011;39116;59.332;18.034;2022-07-06T03:24:30;5.80;;;2.22;;
10823;SDS011;39116;59.332;18.034;2022-07-06T03:26:57;8.00;;;2.03;;
10823;SDS011;39116;59.332;18.034;2022-07-06T03:29:23;3.75;;;1.50;;
10823;SDS011;39116;59.332;18.034;2022-07-06T03:31:50;7.45;;;1.90;;
10823;SDS011;39116;59.332;18.034;2022-07-06T03:34:16;3.72;;;1.58;;
10823;SDS011;39116;59.332;18.034;2022-07-06T03:36:43;5.40;;;1.77;;
10823;SDS011;39116;59.332;18.034;2022-07-06T03:39:11;3.80;;;1.67;;
10823;SDS011;39116;59.332;18.034;2022-07-06T03:41:37;1.95;;;1.50;;
10823;SDS011;39116;59.332;18.034;2022-07-06T03:44:04;4.78;;;1.67;;
10823;SDS011;39116;59.332;18.034;2022-07-06T03:46:30;5.28;;;1.63;;
10823;SDS011;39116;59.332;18.034;2022-07-06T03:48:56;5.28;;;1.60;;
10823;SDS011;39116;59.332;18.034;2022-07-06T03:51:23;5.72;;;1.80;;
10823;SDS011;39116;59.332;18.034;2022-07-06T03:53:49;3.15;;;1.52;;
10823;SDS011;39116;59.332;18.034;2022-07-06T03:56:17;5.22;;;1.80;;
10823;SDS011;39116;59.332;18.034;2022-07-06T03:58:58;4.75;;;1.77;;
10823;SDS011;39116;59.332;18.034;2022-07-06T04:01:25;5.53;;;1.58;;
10823;SDS011;39116;59.332;18.034;2022-07-06T04:03:51;5.65;;;1.90;;
10823;SDS011;39116;59.332;18.034;2022-07-06T04:06:18;6.38;;;1.88;;
10823;SDS011;39116;59.332;18.034;2022-07-06T04:08:44;4.28;;;1.90;;
10823;SDS011;39116;59.332;18.034;2022-07-06T04:11:11;3.65;;;1.70;;
10823;SDS011;39116;59.332;18.034;2022-07-06T04:13:38;4.82;;;1.70;;
10823;SDS011;39116;59.332;18.034;2022-07-06T04:16:05;3.67;;;1.40;;
10823;SDS011;39116;59.332;18.034;2022-07-06T04:18:31;7.13;;;1.60;;
10823;SDS011;39116;59.332;18.034;2022-07-06T04:20:58;5.40;;;1.63;;
10823;SDS011;39116;59.332;18.034;2022-07-06T04:23:24;5.68;;;1.63;;
10823;SDS011;39116;59.332;18.034;2022-07-06T04:25:51;5.13;;;1.70;;
10823;SDS011;39116;59.332;18.034;2022-07-06T04:28:18;3.88;;;1.50;;
10823;SDS011;39116;59.332;18.034;2022-07-06T04:30:45;5.97;;;1.67;;
10823;SDS011;39116;59.332;18.034;2022-07-06T04:33:12;6.22;;;1.80;;
10823;SDS011;39116;59.332;18.034;2022-07-06T04:35:38;3.42;;;1.70;;
10823;SDS011;39116;59.332;18.034;2022-07-06T04:38:05;4.82;;;1.95;;
10823;SDS011;39116;59.332;18.034;2022-07-06T04:40:31;5.63;;;1.88;;
10823;SDS011;39116;59.332;18.034;2022-07-06T04:42:58;4.90;;;1.77;;
10823;SDS011;39116;59.332;18.034;2022-07-06T04:45:24;4.28;;;1.67;;
10823;SDS011;39116;59.332;18.034;2022-07-06T04:47:53;5.05;;;1.92;;
10823;SDS011;39116;59.332;18.034;2022-07-06T04:50:20;6.90;;;2.10;;
10823;SDS011;39116;59.332;18.034;2022-07-06T04:52:46;5.32;;;1.70;;
10823;SDS011;39116;59.332;18.034;2022-07-06T04:55:13;5.95;;;1.70;;
10823;SDS011;39116;59.332;18.034;2022-07-06T04:57:39;4.43;;;1.70;;
10823;SDS011;39116;59.332;18.034;2022-07-06T05:00:07;5.47;;;1.70;;
10823;SDS011;39116;59.332;18.034;2022-07-06T05:02:33;4.60;;;1.60;;
10823;SDS011;39116;59.332;18.034;2022-07-06T05:05:01;4.10;;;1.83;;
10823;SDS011;39116;59.332;18.034;2022-07-06T05:07:27;5.97;;;1.85;;
10823;SDS011;39116;59.332;18.034;2022-07-06T05:09:55;5.10;;;1.75;;
10823;SDS011;39116;59.332;18.034;2022-07-06T05:12:21;5.18;;;2.00;;
10823;SDS011;39116;59.332;18.034;2022-07-06T05:14:48;6.15;;;1.95;;
10823;SDS011;39116;59.332;18.034;2022-07-06T05:17:15;7.43;;;1.83;;
10823;SDS011;39116;59.332;18.034;2022-07-06T05:19:41;5.80;;;1.73;;
10823;SDS011;39116;59.332;18.034;2022-07-06T05:22:09;6.70;;;1.73;;
10823;SDS011;39116;59.332;18.034;2022-07-06T05:24:35;5.03;;;1.95;;
10823;SDS011;39116;59.332;18.034;2022-07-06T05:27:02;6.07;;;2.05;;
10823;SDS011;39116;59.332;18.034;2022-07-06T05:29:28;3.70;;;1.67;;
10823;SDS011;39116;59.332;18.034;2022-07-06T05:31:55;4.00;;;1.60;;
10823;SDS011;39116;59.332;18.034;2022-07-06T05:34:21;5.18;;;1.73;;
10823;SDS011;39116;59.332;18.034;2022-07-06T05:36:48;5.45;;;1.88;;
10823;SDS011;39116;59.332;18.034;2022-07-06T05:39:15;6.93;;;1.77;;
10823;SDS011;39116;59.332;18.034;2022-07-06T05:41:44;6.35;;;2.08;;
10823;SDS011;39116;59.332;18.034;2022-07-06T05:44:11;5.63;;;1.77;;
10823;SDS011;39116;59.332;18.034;2022-07-06T05:46:37;5.43;;;1.80;;
10823;SDS011;39116;59.332;18.034;2022-07-06T05:49:04;6.28;;;1.85;;
10823;SDS011;39116;59.332;18.034;2022-07-06T05:51:48;6.90;;;1.90;;
10823;SDS011;39116;59.332;18.034;2022-07-06T05:54:16;4.40;;;1.77;;
10823;SDS011;39116;59.332;18.034;2022-07-06T05:56:42;3.88;;;1.70;;
10823;SDS011;39116;59.332;18.034;2022-07-06T05:59:09;5.25;;;1.65;;
10823;SDS011;39116;59.332;18.034;2022-07-06T06:01:35;4.80;;;1.83;;
10823;SDS011;39116;59.332;18.034;2022-07-06T06:04:02;6.85;;;1.50;;
10823;SDS011;39116;59.332;18.034;2022-07-06T06:06:28;5.60;;;1.73;;
10823;SDS011;39116;59.332;18.034;2022-07-06T06:08:56;3.42;;;1.55;;
10823;SDS011;39116;59.332;18.034;2022-07-06T06:11:24;5.25;;;2.00;;
10823;SDS011;39116;59.332;18.034;2022-07-06T06:13:50;3.67;;;1.50;;
10823;SDS011;39116;59.332;18.034;2022-07-06T06:16:17;6.63;;;1.88;;
10823;SDS011;39116;59.332;18.034;2022-07-06T06:18:43;4.50;;;1.50;;
10823;SDS011;39116;59.332;18.034;2022-07-06T06:21:09;3.58;;;1.65;;
10823;SDS011;39116;59.332;18.034;2022-07-06T06:23:36;4.22;;;1.58;;
10823;SDS011;39116;59.332;18.034;2022-07-06T06:26:03;6.07;;;2.25;;
10823;SDS011;39116;59.332;18.034;2022-07-06T06:28:31;8.57;;;2.00;;
10823;SDS011;39116;59.332;18.034;2022-07-06T06:30:57;8.77;;;1.70;;
10823;SDS011;39116;59.332;18.034;2022-07-06T06:33:23;7.22;;;1.67;;
10823;SDS011;39116;59.332;18.034;2022-07-06T06:35:51;3.28;;;1.60;;
10823;SDS011;39116;59.332;18.034;2022-07-06T06:38:18;4.72;;;1.80;;
10823;SDS011;39116;59.332;18.034;2022-07-06T06:40:45;6.55;;;2.00;;
10823;SDS011;39116;59.332;18.034;2022-07-06T06:43:12;4.20;;;1.75;;
10823;SDS011;39116;59.332;18.034;2022-07-06T06:45:40;7.03;;;1.65;;
10823;SDS011;39116;59.332;18.034;2022-07-06T06:48:06;4.30;;;1.50;;
10823;SDS011;39116;59.332;18.034;2022-07-06T06:50:33;4.95;;;1.58;;
10823;SDS011;39116;59.332;18.034;2022-07-06T06:52:59;4.28;;;1.70;;
10823;SDS011;39116;59.332;18.034;2022-07-06T06:55:26;2.70;;;1.25;;
10823;SDS011;39116;59.332;18.034;2022-07-06T06:57:52;3.20;;;2.00;;
10823;SDS011;39116;59.332;18.034;2022-07-06T07:00:19;6.65;;;1.50;;
10823;SDS011;39116;59.332;18.034;2022-07-06T07:02:47;4.93;;;2.20;;
10823;SDS011;39116;59.332;18.034;2022-07-06T07:05:16;4.03;;;1.58;;
10823;SDS011;39116;59.332;18.034;2022-07-06T07:07:43;4.72;;;1.67;;
10823;SDS011;39116;59.332;18.034;2022-07-06T07:10:09;3.78;;;1.55;;
10823;SDS011;39116;59.332;18.034;2022-07-06T07:12:41;3.05;;;1.45;;
10823;SDS011;39116;59.332;18.034;2022-07-06T07:15:08;3.60;;;1.50;;
10823;SDS011;39116;59.332;18.034;2022-07-06T07:17:35;4.47;;;1.52;;
10823;SDS011;39116;59.332;18.034;2022-07-06T07:20:03;5.25;;;2.00;;
10823;SDS011;39116;59.332;18.034;2022-07-06T07:22:29;5.22;;;1.30;;
10823;SDS011;39116;59.332;18.034;2022-07-06T07:24:56;4.85;;;1.80;;
10823;SDS011;39116;59.332;18.034;2022-07-06T07:27:23;3.25;;;1.50;;
10823;SDS011;39116;59.332;18.034;2022-07-06T07:29:50;4.70;;;1.88;;
10823;SDS011;39116;59.332;18.034;2022-07-06T07:32:16;7.45;;;1.73;;
10823;SDS011;39116;59.332;18.034;2022-07-06T07:34:43;4.38;;;1.52;;
10823;SDS011;39116;59.332;18.034;2022-07-06T07:37:11;4.43;;;1.50;;
10823;SDS011;39116;59.332;18.034;2022-07-06T07:39:37;6.57;;;1.80;;
10823;SDS011;39116;59.332;18.034;2022-07-06T07:42:04;4.30;;;1.50;;
10823;SDS011;39116;59.332;18.034;2022-07-06T07:44:30;5.68;;;1.40;;
10823;SDS011;39116;59.332;18.034;2022-07-06T07:46:57;4.22;;;1.60;;
10823;SDS011;39116;59.332;18.034;2022-07-06T07:49:23;4.32;;;1.70;;
10823;SDS011;39116;59.332;18.034;2022-07-06T07:51:50;5.22;;;2.00;;
10823;SDS011;39116;59.332;18.034;2022-07-06T07:54:18;7.10;;;2.13;;
10823;SDS011;39116;59.332;18.034;2022-07-06T07:56:44;4.45;;;1.58;;
10823;SDS011;39116;59.332;18.034;2022-07-06T07:59:11;5.93;;;1.60;;
10823;SDS011;39116;59.332;18.034;2022-07-06T08:01:37;3.78;;;1.60;;
10823;SDS011;39116;59.332;18.034;2022-07-06T08:04:03;6.30;;;1.63;;
10823;SDS011;39116;59.332;18.034;2022-07-06T08:06:30;5.55;;;1.40;;
10823;SDS011;39116;59.332;18.034;2022-07-06T08:08:56;2.53;;;1.33;;
10823;SDS011;39116;59.332;18.034;2022-07-06T08:11:24;1.65;;;1.15;;
10823;SDS011;39116;59.332;18.034;2022-07-06T08:13:51;6.88;;;1.73;;
10823;SDS011;39116;59.332;18.034;2022-07-06T08:16:17;7.75;;;1.38;;
10823;SDS011;39116;59.332;18.034;2022-07-06T08:18:44;4.68;;;1.48;;
10823;SDS011;39116;59.332;18.034;2022-07-06T08:21:10;5.15;;;1.48;;
10823;SDS011;39116;59.332;18.034;2022-07-06T08:23:37;6.30;;;1.42;;
10823;SDS011;39116;59.332;18.034;2022-07-06T08:26:03;5.28;;;1.23;;
10823;SDS011;39116;59.332;18.034;2022-07-06T08:28:31;3.15;;;1.27;;
10823;SDS011;39116;59.332;18.034;2022-07-06T08:30:57;4.60;;;1.35;;
10823;SDS011;39116;59.332;18.034;2022-07-06T08:33:24;4.75;;;1.50;;
10823;SDS011;39116;59.332;18.034;2022-07-06T08:35:50;4.60;;;1.25;;
10823;SDS011;39116;59.332;18.034;2022-07-06T08:38:17;5.57;;;1.25;;
10823;SDS011;39116;59.332;18.034;2022-07-06T08:40:43;3.30;;;1.42;;
10823;SDS011;39116;59.332;18.034;2022-07-06T08:43:11;1.60;;;1.20;;
10823;SDS011;39116;59.332;18.034;2022-07-06T08:45:41;5.40;;;1.35;;
10823;SDS011;39116;59.332;18.034;2022-07-06T08:48:09;2.28;;;1.25;;
10823;SDS011;39116;59.332;18.034;2022-07-06T08:50:36;3.22;;;1.65;;
10823;SDS011;39116;59.332;18.034;2022-07-06T08:53:02;3.63;;;1.02;;
10823;SDS011;39116;59.332;18.034;2022-07-06T08:55:29;4.13;;;1.42;;
10823;SDS011;39116;59.332;18.034;2022-07-06T08:57:55;2.45;;;1.08;;
10823;SDS011;39116;59.332;18.034;2022-07-06T09:00:22;1.73;;;1.20;;
10823;SDS011;39116;59.332;18.034;2022-07-06T09:02:51;1.85;;;0.88;;
10823;SDS011;39116;59.332;18.034;2022-07-06T09:05:22;2.20;;;1.42;;
10823;SDS011;39116;59.332;18.034;2022-07-06T09:07:48;4.65;;;1.33;;
10823;SDS011;39116;59.332;18.034;2022-07-06T09:10:15;3.17;;;1.30;;
10823;SDS011;39116;59.332;18.034;2022-07-06T09:12:43;2.08;;;1.08;;
10823;SDS011;39116;59.332;18.034;2022-07-06T09:15:09;5.38;;;1.35;;
10823;SDS011;39116;59.332;18.034;2022-07-06T09:17:37;5.22;;;1.40;;
10823;SDS011;39116;59.332;18.034;2022-07-06T09:20:06;6.82;;;1.60;;
10823;SDS011;39116;59.332;18.034;2022-07-06T09:22:33;3.92;;;1.52;;
10823;SDS011;39116;59.332;18.034;2022-07-06T09:25:03;3.42;;;1.27;;
10823;SDS011;39116;59.332;18.034;2022-07-06T09:27:30;3.08;;;1.30;;
10823;SDS011;39116;59.332;18.034;2022-07-06T09:30:00;4.22;;;1.65;;
10823;SDS011;39116;59.332;18.034;2022-07-06T09:32:27;2.10;;;1.35;;
10823;SDS011;39116;59.332;18.034;2022-07-06T09:34:53;3.33;;;1.10;;
10823;SDS011;39116;59.332;18.034;2022-07-06T09:37:21;2.78;;;1.40;;
10823;SDS011;39116;59.332;18.034;2022-07-06T09:39:48;3.35;;;1.10;;
10823;SDS011;39116;59.332;18.034;2022-07-06T09:42:15;5.03;;;1.30;;
10823;SDS011;39116;59.332;18.034;2022-07-06T09:44:41;3.70;;;1.23;;
10823;SDS011;39116;59.332;18.034;2022-07-06T09:47:08;4.05;;;1.27;;
10823;SDS011;39116;59.332;18.034;2022-07-06T09:49:35;3.72;;;1.10;;
10823;SDS011;39116;59.332;18.034;2022-07-06T09:52:02;3.08;;;1.17;;
10823;SDS011;39116;59.332;18.034;2022-07-06T09:54:30;3.47;;;1.13;;
10823;SDS011;39116;59.332;18.034;2022-07-06T09:56:58;2.20;;;1.40;;
10823;SDS011;39116;59.332;18.034;2022-07-06T09:59:26;3.45;;;1.10;;
10823;SDS011;39116;59.332;18.034;2022-07-06T10:01:53;3.00;;;1.80;;
10823;SDS011;39116;59.332;18.034;2022-07-06T10:04:20;3.50;;;1.30;;
10823;SDS011;39116;59.332;18.034;2022-07-06T10:06:47;3.25;;;1.10;;
10823;SDS011;39116;59.332;18.034;2022-07-06T10:09:13;3.40;;;1.30;;
10823;SDS011;39116;59.332;18.034;2022-07-06T10:11:42;2.40;;;1.20;;
10823;SDS011;39116;59.332;18.034;2022-07-06T10:14:08;2.70;;;1.10;;
10823;SDS011;39116;59.332;18.034;2022-07-06T10:16:36;3.47;;;1.40;;
10823;SDS011;39116;59.332;18.034;2022-07-06T10:19:07;4.78;;;1.27;;
10823;SDS011;39116;59.332;18.034;2022-07-06T10:21:35;2.60;;;0.95;;
10823;SDS011;39116;59.332;18.034;2022-07-06T10:24:02;2.80;;;1.02;;
10823;SDS011;39116;59.332;18.034;2022-07-06T10:26:28;2.22;;;1.00;;
10823;SDS011;39116;59.332;18.034;2022-07-06T10:28:57;3.10;;;1.30;;
10823;SDS011;39116;59.332;18.034;2022-07-06T10:31:24;2.90;;;1.30;;
10823;SDS011;39116;59.332;18.034;2022-07-06T10:33:51;4.93;;;1.50;;
10823;SDS011;39116;59.332;18.034;2022-07-06T10:36:18;2.17;;;1.20;;
10823;SDS011;39116;59.332;18.034;2022-07-06T10:38:46;2.22;;;1.00;;
10823;SDS011;39116;59.332;18.034;2022-07-06T10:41:14;2.80;;;1.33;;
10823;SDS011;39116;59.332;18.034;2022-07-06T10:43:41;2.97;;;0.98;;
10823;SDS011;39116;59.332;18.034;2022-07-06T10:46:10;1.73;;;0.82;;
10823;SDS011;39116;59.332;18.034;2022-07-06T10:48:37;4.35;;;1.40;;
10823;SDS011;39116;59.332;18.034;2022-07-06T10:51:03;2.78;;;1.08;;
10823;SDS011;39116;59.332;18.034;2022-07-06T10:53:31;3.40;;;1.10;;
10823;SDS011;39116;59.332;18.034;2022-07-06T10:55:59;2.38;;;0.88;;
10823;SDS011;39116;59.332;18.034;2022-07-06T10:58:36;3.22;;;1.13;;
10823;SDS011;39116;59.332;18.034;2022-07-06T11:01:12;3.17;;;1.25;;
10823;SDS011;39116;59.332;18.034;2022-07-06T11:03:39;2.85;;;1.23;;
10823;SDS011;39116;59.332;18.034;2022-07-06T11:06:07;4.38;;;1.25;;
10823;SDS011;39116;59.332;18.034;2022-07-06T11:11:25;2.08;;;0.95;;
10823;SDS011;39116;59.332;18.034;2022-07-06T11:13:53;1.55;;;0.98;;
10823;SDS011;39116;59.332;18.034;2022-07-06T11:16:21;3.83;;;1.00;;
10823;SDS011;39116;59.332;18.034;2022-07-06T11:18:49;1.85;;;1.00;;
10823;SDS011;39116;59.332;18.034;2022-07-06T11:21:20;2.25;;;0.82;;
10823;SDS011;39116;59.332;18.034;2022-07-06T11:23:47;1.00;;;0.68;;
10823;SDS011;39116;59.332;18.034;2022-07-06T11:26:14;2.40;;;0.90;;
10823;SDS011;39116;59.332;18.034;2022-07-06T11:28:40;2.22;;;0.65;;
10823;SDS011;39116;59.332;18.034;2022-07-06T11:31:07;0.73;;;0.70;;
10823;SDS011;39116;59.332;18.034;2022-07-06T11:33:35;2.80;;;0.85;;
10823;SDS011;39116;59.332;18.034;2022-07-06T11:36:11;1.92;;;0.98;;
10823;SDS011;39116;59.332;18.034;2022-07-06T11:38:38;4.45;;;1.30;;
10823;SDS011;39116;59.332;18.034;2022-07-06T11:41:04;1.90;;;1.10;;
10823;SDS011;39116;59.332;18.034;2022-07-06T11:43:30;2.72;;;1.13;;
10823;SDS011;39116;59.332;18.034;2022-07-06T11:45:57;1.55;;;0.90;;
10823;SDS011;39116;59.332;18.034;2022-07-06T11:48:23;2.30;;;1.08;;
10823;SDS011;39116;59.332;18.034;2022-07-06T11:50:58;2.67;;;1.13;;
10823;SDS011;39116;59.332;18.034;2022-07-06T11:53:24;1.95;;;0.77;;
10823;SDS011;39116;59.332;18.034;2022-07-06T11:55:51;2.85;;;1.60;;
10823;SDS011;39116;59.332;18.034;2022-07-06T11:58:18;3.00;;;0.90;;
10823;SDS011;39116;59.332;18.034;2022-07-06T12:03:28;1.52;;;1.02;;
10823;SDS011;39116;59.332;18.034;2022-07-06T12:05:54;1.88;;;0.80;;
10823;SDS011;39116;59.332;18.034;2022-07-06T12:08:22;1.40;;;0.80;;
10823;SDS011;39116;59.332;18.034;2022-07-06T12:10:49;1.67;;;0.90;;
10823;SDS011;39116;59.332;18.034;2022-07-06T12:13:15;0.82;;;0.75;;
10823;SDS011;39116;59.332;18.034;2022-07-06T12:15:41;2.30;;;0.98;;
10823;SDS011;39116;59.332;18.034;2022-07-06T12:18:08;1.90;;;0.90;;
10823;SDS011;39116;59.332;18.034;2022-07-06T12:20:34;1.65;;;0.73;;
10823;SDS011;39116;59.332;18.034;2022-07-06T12:23:01;2.28;;;0.95;;
10823;SDS011;39116;59.332;18.034;2022-07-06T12:25:32;1.58;;;0.73;;
10823;SDS011;39116;59.332;18.034;2022-07-06T12:27:58;1.17;;;1.08;;
10823;SDS011;39116;59.332;18.034;2022-07-06T12:30:25;2.60;;;1.00;;
10823;SDS011;39116;59.332;18.034;2022-07-06T12:33:10;2.63;;;1.10;;
10823;SDS011;39116;59.332;18.034;2022-07-06T12:35:37;3.25;;;1.00;;
10823;SDS011;39116;59.332;18.034;2022-07-06T12:38:04;2.17;;;0.80;;
10823;SDS011;39116;59.332;18.034;2022-07-06T12:40:31;2.13;;;0.85;;
10823;SDS011;39116;59.332;18.034;2022-07-06T12:42:58;2.25;;;1.10;;
10823;SDS011;39116;59.332;18.034;2022-07-06T12:45:26;1.92;;;1.00;;
10823;SDS011;39116;59.332;18.034;2022-07-06T12:47:58;1.67;;;0.90;;
10823;SDS011;39116;59.332;18.034;2022-07-06T12:50:32;3.40;;;0.90;;
10823;SDS011;39116;59.332;18.034;2022-07-06T12:52:59;1.40;;;0.90;;
10823;SDS011;39116;59.332;18.034;2022-07-06T12:55:25;3.67;;;0.90;;
10823;SDS011;39116;59.332;18.034;2022-07-06T12:57:54;2.58;;;1.00;;
10823;SDS011;39116;59.332;18.034;2022-07-06T13:00:21;2.03;;;0.98;;
10823;SDS011;39116;59.332;18.034;2022-07-06T13:02:48;2.90;;;1.00;;
10823;SDS011;39116;59.332;18.034;2022-07-06T13:05:21;2.60;;;0.85;;
10823;SDS011;39116;59.332;18.034;2022-07-06T13:07:52;3.75;;;0.70;;
10823;SDS011;39116;59.332;18.034;2022-07-06T13:10:19;2.95;;;1.02;;
10823;SDS011;39116;59.332;18.034;2022-07-06T13:12:45;1.00;;;0.90;;
10823;SDS011;39116;59.332;18.034;2022-07-06T13:15:13;2.97;;;0.80;;
10823;SDS011;39116;59.332;18.034;2022-07-06T13:17:39;2.20;;;0.98;;
10823;SDS011;39116;59.332;18.034;2022-07-06T13:20:07;2.42;;;1.00;;
10823;SDS011;39116;59.332;18.034;2022-07-06T13:22:34;2.38;;;0.77;;
10823;SDS011;39116;59.332;18.034;2022-07-06T13:25:00;1.92;;;0.90;;
10823;SDS011;39116;59.332;18.034;2022-07-06T13:27:27;2.08;;;0.95;;
10823;SDS011;39116;59.332;18.034;2022-07-06T13:29:54;1.55;;;0.90;;
10823;SDS011;39116;59.332;18.034;2022-07-06T13:32:22;1.70;;;1.10;;
10823;SDS011;39116;59.332;18.034;2022-07-06T13:34:48;1.45;;;0.80;;
10823;SDS011;39116;59.332;18.034;2022-07-06T13:37:14;1.58;;;0.98;;
10823;SDS011;39116;59.332;18.034;2022-07-06T13:39:41;1.95;;;1.10;;
10823;SDS011;39116;59.332;18.034;2022-07-06T13:42:08;2.05;;;1.00;;
10823;SDS011;39116;59.332;18.034;2022-07-06T13:44:34;2.15;;;0.90;;
10823;SDS011;39116;59.332;18.034;2022-07-06T13:47:01;1.83;;;0.80;;
10823;SDS011;39116;59.332;18.034;2022-07-06T13:49:29;3.05;;;1.00;;
10823;SDS011;39116;59.332;18.034;2022-07-06T13:51:55;1.40;;;0.70;;
10823;SDS011;39116;59.332;18.034;2022-07-06T13:54:27;2.03;;;0.85;;
10823;SDS011;39116;59.332;18.034;2022-07-06T13:56:53;3.28;;;1.00;;
10823;SDS011;39116;59.332;18.034;2022-07-06T13:59:20;3.30;;;1.30;;
10823;SDS011;39116;59.332;18.034;2022-07-06T14:01:46;3.92;;;1.20;;
10823;SDS011;39116;59.332;18.034;2022-07-06T14:04:13;2.80;;;1.00;;
10823;SDS011;39116;59.332;18.034;2022-07-06T14:06:41;1.92;;;0.90;;
10823;SDS011;39116;59.332;18.034;2022-07-06T14:09:07;2.30;;;1.30;;
10823;SDS011;39116;59.332;18.034;2022-07-06T14:11:33;2.20;;;1.10;;
10823;SDS011;39116;59.332;18.034;2022-07-06T14:14:00;0.98;;;0.80;;
10823;SDS011;39116;59.332;18.034;2022-07-06T14:16:26;2.08;;;1.20;;
10823;SDS011;39116;59.332;18.034;2022-07-06T14:18:53;1.83;;;1.10;;
10823;SDS011;39116;59.332;18.034;2022-07-06T14:21:20;2.20;;;1.10;;
10823;SDS011;39116;59.332;18.034;2022-07-06T14:23:48;2.08;;;1.17;;
10823;SDS011;39116;59.332;18.034;2022-07-06T14:26:14;3.25;;;1.10;;
10823;SDS011;39116;59.332;18.034;2022-07-06T14:28:41;1.55;;;1.00;;
10823;SDS011;39116;59.332;18.034;2022-07-06T14:31:07;2.60;;;1.00;;
10823;SDS011;39116;59.332;18.034;2022-07-06T14:33:34;2.75;;;1.15;;
10823;SDS011;39116;59.332;18.034;2022-07-06T14:36:00;3.70;;;1.10;;
10823;SDS011;39116;59.332;18.034;2022-07-06T14:38:26;1.65;;;0.88;;